sensor_id;sensor_type;location;lat;lon;timestamp;temperature;humidity
22680;DHT22;11507;44.858;10.374;2023-02-25T00:00:05;9.30;99.90
22680;DHT22;11507;44.858;10.374;2023-02-25T00:02:47;9.30;99.90
22680;DHT22;11507;44.858;10.374;2023-02-25T00:05:14;9.30;99.90
22680;DHT22;11507;44.858;10.374;2023-02-25T00:07:40;9.30;99.90
22680;DHT22;11507;44.858;10.374;2023-02-25T00:10:06;9.40;99.90
22680;DHT22;11507;44.858;10.374;2023-02-25T00:12:32;9.50;99.90
22680;DHT22;11507;44.858;10.374;2023-02-25T00:14:58;9.50;99.90
22680;DHT22;11507;44.858;10.374;2023-02-25T00:17:24;9.50;99.90
22680;DHT22;11507;44.858;10.374;2023-02-25T00:19:49;9.50;99.90
22680;DHT22;11507;44.858;10.374;2023-02-25T00:22:15;9.60;99.90
22680;DHT22;11507;44.858;10.374;2023-02-25T00:24:41;9.60;99.90
22680;DHT22;11507;44.858;10.374;2023-02-25T00:27:07;9.60;99.90
22680;DHT22;11507;44.858;10.374;2023-02-25T00:29:34;9.70;99.90
22680;DHT22;11507;44.858;10.374;2023-02-25T00:32:01;9.70;99.90
22680;DHT22;11507;44.858;10.374;2023-02-25T00:34:26;9.70;99.90
22680;DHT22;11507;44.858;10.374;2023-02-25T00:36:54;9.80;99.90
22680;DHT22;11507;44.858;10.374;2023-02-25T00:39:20;9.80;99.90
22680;DHT22;11507;44.858;10.374;2023-02-25T00:41:47;9.80;99.90
22680;DHT22;11507;44.858;10.374;2023-02-25T00:44:13;9.80;99.90
22680;DHT22;11507;44.858;10.374;2023-02-25T00:46:39;9.70;99.90
22680;DHT22;11507;44.858;10.374;2023-02-25T00:49:04;9.80;99.90
22680;DHT22;11507;44.858;10.374;2023-02-25T00:51:30;9.80;99.90
22680;DHT22;11507;44.858;10.374;2023-02-25T00:53:57;9.80;99.90
22680;DHT22;11507;44.858;10.374;2023-02-25T00:56:23;9.80;99.90
22680;DHT22;11507;44.858;10.374;2023-02-25T00:58:49;9.80;99.90
22680;DHT22;11507;44.858;10.374;2023-02-25T01:03:42;9.70;99.90
22680;DHT22;11507;44.858;10.374;2023-02-25T01:06:08;9.70;99.90
22680;DHT22;11507;44.858;10.374;2023-02-25T01:08:35;9.70;99.90
22680;DHT22;11507;44.858;10.374;2023-02-25T01:11:14;9.80;99.90
22680;DHT22;11507;44.858;10.374;2023-02-25T01:13:42;9.80;99.90
22680;DHT22;11507;44.858;10.374;2023-02-25T01:16:09;9.80;99.90
22680;DHT22;11507;44.858;10.374;2023-02-25T01:18:35;9.80;99.90
22680;DHT22;11507;44.858;10.374;2023-02-25T01:21:01;9.70;99.90
22680;DHT22;11507;44.858;10.374;2023-02-25T01:23:27;9.70;99.90
22680;DHT22;11507;44.858;10.374;2023-02-25T01:25:54;9.80;99.90
22680;DHT22;11507;44.858;10.374;2023-02-25T01:28:20;9.80;99.90
22680;DHT22;11507;44.858;10.374;2023-02-25T01:30:46;9.70;99.90
22680;DHT22;11507;44.858;10.374;2023-02-25T01:33:11;9.60;99.90
22680;DHT22;11507;44.858;10.374;2023-02-25T01:35:37;9.60;99.90
22680;DHT22;11507;44.858;10.374;2023-02-25T01:38:03;9.60;99.90
22680;DHT22;11507;44.858;10.374;2023-02-25T01:40:29;9.60;99.90
22680;DHT22;11507;44.858;10.374;2023-02-25T01:42:55;9.60;99.90
22680;DHT22;11507;44.858;10.374;2023-02-25T01:45:22;9.50;99.90
22680;DHT22;11507;44.858;10.374;2023-02-25T01:48:34;9.60;99.90
22680;DHT22;11507;44.858;10.374;2023-02-25T01:50:39;9.60;99.90
22680;DHT22;11507;44.858;10.374;2023-02-25T01:53:06;9.60;99.90
22680;DHT22;11507;44.858;10.374;2023-02-25T01:55:33;9.60;99.90
22680;DHT22;11507;44.858;10.374;2023-02-25T01:57:59;9.50;99.90
22680;DHT22;11507;44.858;10.374;2023-02-25T02:00:26;9.40;99.90
22680;DHT22;11507;44.858;10.374;2023-02-25T02:02:53;9.40;99.90
22680;DHT22;11507;44.858;10.374;2023-02-25T02:05:20;9.30;99.90
22680;DHT22;11507;44.858;10.374;2023-02-25T02:07:48;9.20;99.90
22680;DHT22;11507;44.858;10.374;2023-02-25T02:10:15;9.30;99.90
22680;DHT22;11507;44.858;10.374;2023-02-25T02:12:42;9.20;99.90
22680;DHT22;11507;44.858;10.374;2023-02-25T02:15:11;9.20;99.90
22680;DHT22;11507;44.858;10.374;2023-02-25T02:17:48;9.20;99.90
22680;DHT22;11507;44.858;10.374;2023-02-25T02:36:20;8.50;99.90
22680;DHT22;11507;44.858;10.374;2023-02-25T02:38:52;8.40;99.90
22680;DHT22;11507;44.858;10.374;2023-02-25T02:41:34;8.50;99.90
22680;DHT22;11507;44.858;10.374;2023-02-25T02:44:06;8.40;99.90
22680;DHT22;11507;44.858;10.374;2023-02-25T02:47:22;8.30;99.90
22680;DHT22;11507;44.858;10.374;2023-02-25T02:52:02;8.30;99.90
22680;DHT22;11507;44.858;10.374;2023-02-25T02:54:34;8.30;99.90
22680;DHT22;11507;44.858;10.374;2023-02-25T02:57:01;8.20;99.90
22680;DHT22;11507;44.858;10.374;2023-02-25T03:02:01;8.20;99.90
22680;DHT22;11507;44.858;10.374;2023-02-25T03:04:32;8.20;99.90
22680;DHT22;11507;44.858;10.374;2023-02-25T03:06:59;8.20;99.90
22680;DHT22;11507;44.858;10.374;2023-02-25T03:09:27;8.20;99.90
22680;DHT22;11507;44.858;10.374;2023-02-25T03:11:57;8.30;99.90
22680;DHT22;11507;44.858;10.374;2023-02-25T03:14:22;8.20;99.90
22680;DHT22;11507;44.858;10.374;2023-02-25T03:19:22;7.90;99.90
22680;DHT22;11507;44.858;10.374;2023-02-25T03:21:54;7.90;99.90
22680;DHT22;11507;44.858;10.374;2023-02-25T03:24:24;7.90;99.90
22680;DHT22;11507;44.858;10.374;2023-02-25T03:26:53;7.80;99.90
22680;DHT22;11507;44.858;10.374;2023-02-25T03:29:22;7.80;99.90
22680;DHT22;11507;44.858;10.374;2023-02-25T03:31:53;8.00;99.90
22680;DHT22;11507;44.858;10.374;2023-02-25T03:34:27;8.00;99.90
22680;DHT22;11507;44.858;10.374;2023-02-25T03:37:02;8.00;99.90
22680;DHT22;11507;44.858;10.374;2023-02-25T03:39:32;7.90;99.90
22680;DHT22;11507;44.858;10.374;2023-02-25T03:42:00;7.80;99.90
22680;DHT22;11507;44.858;10.374;2023-02-25T03:44:29;7.70;99.90
22680;DHT22;11507;44.858;10.374;2023-02-25T03:46:55;7.80;99.90
22680;DHT22;11507;44.858;10.374;2023-02-25T03:49:24;7.80;99.90
22680;DHT22;11507;44.858;10.374;2023-02-25T03:51:51;7.90;99.90
22680;DHT22;11507;44.858;10.374;2023-02-25T03:54:18;7.90;99.90
22680;DHT22;11507;44.858;10.374;2023-02-25T03:56:48;7.90;99.90
22680;DHT22;11507;44.858;10.374;2023-02-25T03:59:15;7.80;99.90
22680;DHT22;11507;44.858;10.374;2023-02-25T04:01:42;7.80;99.90
22680;DHT22;11507;44.858;10.374;2023-02-25T04:04:09;7.70;99.90
22680;DHT22;11507;44.858;10.374;2023-02-25T04:06:34;7.60;99.90
22680;DHT22;11507;44.858;10.374;2023-02-25T04:09:00;7.50;99.90
22680;DHT22;11507;44.858;10.374;2023-02-25T04:11:27;7.30;99.90
22680;DHT22;11507;44.858;10.374;2023-02-25T04:13:52;7.30;99.90
22680;DHT22;11507;44.858;10.374;2023-02-25T04:16:19;7.10;99.90
22680;DHT22;11507;44.858;10.374;2023-02-25T04:18:46;7.00;99.90
22680;DHT22;11507;44.858;10.374;2023-02-25T04:24:07;6.80;99.90
22680;DHT22;11507;44.858;10.374;2023-02-25T04:26:33;6.80;99.90
22680;DHT22;11507;44.858;10.374;2023-02-25T04:29:00;6.90;99.90
22680;DHT22;11507;44.858;10.374;2023-02-25T04:31:25;7.00;99.90
22680;DHT22;11507;44.858;10.374;2023-02-25T04:33:51;6.90;99.90
22680;DHT22;11507;44.858;10.374;2023-02-25T04:36:24;6.80;99.90
22680;DHT22;11507;44.858;10.374;2023-02-25T04:38:50;6.80;99.90
22680;DHT22;11507;44.858;10.374;2023-02-25T04:41:17;6.80;99.90
22680;DHT22;11507;44.858;10.374;2023-02-25T04:43:42;6.80;99.90
22680;DHT22;11507;44.858;10.374;2023-02-25T04:46:10;6.80;99.90
22680;DHT22;11507;44.858;10.374;2023-02-25T04:48:36;6.70;99.90
22680;DHT22;11507;44.858;10.374;2023-02-25T04:51:04;6.70;99.90
22680;DHT22;11507;44.858;10.374;2023-02-25T04:53:31;6.60;99.90
22680;DHT22;11507;44.858;10.374;2023-02-25T04:56:00;6.60;99.90
22680;DHT22;11507;44.858;10.374;2023-02-25T04:58:26;6.60;99.90
22680;DHT22;11507;44.858;10.374;2023-02-25T05:00:52;6.60;99.90
22680;DHT22;11507;44.858;10.374;2023-02-25T05:03:17;6.60;99.90
22680;DHT22;11507;44.858;10.374;2023-02-25T05:05:43;6.50;99.90
22680;DHT22;11507;44.858;10.374;2023-02-25T05:08:09;6.50;99.90
22680;DHT22;11507;44.858;10.374;2023-02-25T05:10:35;6.50;99.90
22680;DHT22;11507;44.858;10.374;2023-02-25T05:13:00;6.60;99.90
22680;DHT22;11507;44.858;10.374;2023-02-25T05:15:26;6.70;99.90
22680;DHT22;11507;44.858;10.374;2023-02-25T05:17:53;6.70;99.90
22680;DHT22;11507;44.858;10.374;2023-02-25T05:20:18;6.80;99.90
22680;DHT22;11507;44.858;10.374;2023-02-25T05:22:44;6.90;99.90
22680;DHT22;11507;44.858;10.374;2023-02-25T05:25:10;6.90;99.90
22680;DHT22;11507;44.858;10.374;2023-02-25T05:27:36;6.90;99.90
22680;DHT22;11507;44.858;10.374;2023-02-25T05:30:02;6.90;99.90
22680;DHT22;11507;44.858;10.374;2023-02-25T05:32:28;6.80;99.90
22680;DHT22;11507;44.858;10.374;2023-02-25T05:34:56;6.70;99.90
22680;DHT22;11507;44.858;10.374;2023-02-25T05:37:22;6.60;99.90
22680;DHT22;11507;44.858;10.374;2023-02-25T05:39:47;6.60;99.90
22680;DHT22;11507;44.858;10.374;2023-02-25T05:42:13;6.50;99.90
22680;DHT22;11507;44.858;10.374;2023-02-25T05:44:39;6.50;99.90
22680;DHT22;11507;44.858;10.374;2023-02-25T05:47:05;6.50;99.90
22680;DHT22;11507;44.858;10.374;2023-02-25T05:49:32;6.40;99.90
22680;DHT22;11507;44.858;10.374;2023-02-25T05:51:58;6.50;99.90
22680;DHT22;11507;44.858;10.374;2023-02-25T05:54:24;6.50;99.90
22680;DHT22;11507;44.858;10.374;2023-02-25T05:56:50;6.50;99.90
22680;DHT22;11507;44.858;10.374;2023-02-25T05:59:16;6.60;99.90
22680;DHT22;11507;44.858;10.374;2023-02-25T06:01:42;6.60;99.90
22680;DHT22;11507;44.858;10.374;2023-02-25T06:04:08;6.60;99.90
22680;DHT22;11507;44.858;10.374;2023-02-25T06:06:34;6.50;99.90
22680;DHT22;11507;44.858;10.374;2023-02-25T06:09:00;6.60;99.90
22680;DHT22;11507;44.858;10.374;2023-02-25T06:11:27;6.60;99.90
22680;DHT22;11507;44.858;10.374;2023-02-25T06:13:53;6.70;99.90
22680;DHT22;11507;44.858;10.374;2023-02-25T06:16:20;6.90;99.90
22680;DHT22;11507;44.858;10.374;2023-02-25T06:18:46;7.00;99.90
22680;DHT22;11507;44.858;10.374;2023-02-25T06:21:13;7.10;99.90
22680;DHT22;11507;44.858;10.374;2023-02-25T06:23:41;7.30;99.90
22680;DHT22;11507;44.858;10.374;2023-02-25T06:26:09;7.40;99.90
22680;DHT22;11507;44.858;10.374;2023-02-25T06:28:35;7.50;99.90
22680;DHT22;11507;44.858;10.374;2023-02-25T06:31:01;7.60;99.90
22680;DHT22;11507;44.858;10.374;2023-02-25T06:33:30;7.60;99.90
22680;DHT22;11507;44.858;10.374;2023-02-25T06:35:57;7.70;99.90
22680;DHT22;11507;44.858;10.374;2023-02-25T06:38:23;7.70;99.90
22680;DHT22;11507;44.858;10.374;2023-02-25T06:40:49;7.70;99.90
22680;DHT22;11507;44.858;10.374;2023-02-25T06:43:15;7.70;99.90
22680;DHT22;11507;44.858;10.374;2023-02-25T06:45:41;7.70;99.90
22680;DHT22;11507;44.858;10.374;2023-02-25T06:48:08;7.70;99.90
22680;DHT22;11507;44.858;10.374;2023-02-25T06:50:33;7.90;99.90
22680;DHT22;11507;44.858;10.374;2023-02-25T06:52:59;7.90;99.90
22680;DHT22;11507;44.858;10.374;2023-02-25T06:55:26;8.00;99.90
22680;DHT22;11507;44.858;10.374;2023-02-25T06:57:51;8.10;99.90
22680;DHT22;11507;44.858;10.374;2023-02-25T07:00:20;8.20;99.90
22680;DHT22;11507;44.858;10.374;2023-02-25T07:02:46;8.20;99.90
22680;DHT22;11507;44.858;10.374;2023-02-25T07:05:12;8.30;99.90
22680;DHT22;11507;44.858;10.374;2023-02-25T07:07:37;8.40;99.90
22680;DHT22;11507;44.858;10.374;2023-02-25T07:10:03;8.40;99.90
22680;DHT22;11507;44.858;10.374;2023-02-25T07:12:30;8.40;99.90
22680;DHT22;11507;44.858;10.374;2023-02-25T07:14:59;8.50;99.90
22680;DHT22;11507;44.858;10.374;2023-02-25T07:17:24;8.60;99.90
22680;DHT22;11507;44.858;10.374;2023-02-25T07:19:51;8.60;99.90
22680;DHT22;11507;44.858;10.374;2023-02-25T07:22:17;8.60;99.90
22680;DHT22;11507;44.858;10.374;2023-02-25T07:24:43;8.70;99.90
22680;DHT22;11507;44.858;10.374;2023-02-25T07:27:09;8.80;99.90
22680;DHT22;11507;44.858;10.374;2023-02-25T07:29:34;8.80;99.90
22680;DHT22;11507;44.858;10.374;2023-02-25T07:32:01;8.80;99.90
22680;DHT22;11507;44.858;10.374;2023-02-25T07:34:26;8.90;99.90
22680;DHT22;11507;44.858;10.374;2023-02-25T07:36:52;9.00;99.90
22680;DHT22;11507;44.858;10.374;2023-02-25T07:39:18;9.10;99.90
22680;DHT22;11507;44.858;10.374;2023-02-25T07:41:43;9.10;99.90
22680;DHT22;11507;44.858;10.374;2023-02-25T07:44:10;9.30;99.90
22680;DHT22;11507;44.858;10.374;2023-02-25T07:46:36;9.40;99.90
22680;DHT22;11507;44.858;10.374;2023-02-25T07:49:03;9.50;99.90
22680;DHT22;11507;44.858;10.374;2023-02-25T07:51:29;9.60;99.90
22680;DHT22;11507;44.858;10.374;2023-02-25T07:53:55;9.70;99.90
22680;DHT22;11507;44.858;10.374;2023-02-25T07:56:22;9.80;99.90
22680;DHT22;11507;44.858;10.374;2023-02-25T07:58:48;9.90;99.90
22680;DHT22;11507;44.858;10.374;2023-02-25T08:01:21;9.90;99.90
22680;DHT22;11507;44.858;10.374;2023-02-25T08:03:49;10.10;99.90
22680;DHT22;11507;44.858;10.374;2023-02-25T08:06:15;10.30;99.90
22680;DHT22;11507;44.858;10.374;2023-02-25T08:08:42;10.40;99.90
22680;DHT22;11507;44.858;10.374;2023-02-25T08:11:10;10.50;99.90
22680;DHT22;11507;44.858;10.374;2023-02-25T08:13:36;10.60;99.90
22680;DHT22;11507;44.858;10.374;2023-02-25T08:16:04;10.70;99.90
22680;DHT22;11507;44.858;10.374;2023-02-25T08:18:30;10.80;99.90
22680;DHT22;11507;44.858;10.374;2023-02-25T08:20:56;10.90;99.90
22680;DHT22;11507;44.858;10.374;2023-02-25T08:23:23;11.00;99.90
22680;DHT22;11507;44.858;10.374;2023-02-25T08:25:53;11.10;99.90
22680;DHT22;11507;44.858;10.374;2023-02-25T08:28:20;11.10;99.90
22680;DHT22;11507;44.858;10.374;2023-02-25T08:30:47;11.20;99.90
22680;DHT22;11507;44.858;10.374;2023-02-25T08:33:14;11.30;99.90
22680;DHT22;11507;44.858;10.374;2023-02-25T08:35:40;11.40;99.90
22680;DHT22;11507;44.858;10.374;2023-02-25T08:38:06;11.60;99.90
22680;DHT22;11507;44.858;10.374;2023-02-25T08:40:31;11.70;99.90
22680;DHT22;11507;44.858;10.374;2023-02-25T08:42:57;11.80;99.90
22680;DHT22;11507;44.858;10.374;2023-02-25T08:45:23;11.90;99.90
22680;DHT22;11507;44.858;10.374;2023-02-25T08:47:50;11.90;99.90
22680;DHT22;11507;44.858;10.374;2023-02-25T08:50:16;12.00;99.90
22680;DHT22;11507;44.858;10.374;2023-02-25T08:52:42;12.10;99.90
22680;DHT22;11507;44.858;10.374;2023-02-25T08:55:08;12.40;99.90
22680;DHT22;11507;44.858;10.374;2023-02-25T08:57:34;12.50;99.90
22680;DHT22;11507;44.858;10.374;2023-02-25T09:00:00;12.70;99.90
22680;DHT22;11507;44.858;10.374;2023-02-25T09:02:27;12.80;99.90
22680;DHT22;11507;44.858;10.374;2023-02-25T09:04:53;12.90;99.90
22680;DHT22;11507;44.858;10.374;2023-02-25T09:07:19;13.00;99.90
22680;DHT22;11507;44.858;10.374;2023-02-25T09:09:46;13.10;99.90
22680;DHT22;11507;44.858;10.374;2023-02-25T09:12:12;13.30;99.90
22680;DHT22;11507;44.858;10.374;2023-02-25T09:14:39;13.60;99.90
22680;DHT22;11507;44.858;10.374;2023-02-25T09:17:06;13.90;99.90
22680;DHT22;11507;44.858;10.374;2023-02-25T09:19:32;14.00;99.90
22680;DHT22;11507;44.858;10.374;2023-02-25T09:22:00;14.20;99.90
22680;DHT22;11507;44.858;10.374;2023-02-25T09:24:25;14.30;99.90
22680;DHT22;11507;44.858;10.374;2023-02-25T09:26:54;14.50;99.90
22680;DHT22;11507;44.858;10.374;2023-02-25T09:29:20;14.70;99.90
22680;DHT22;11507;44.858;10.374;2023-02-25T09:31:45;14.80;99.90
22680;DHT22;11507;44.858;10.374;2023-02-25T09:34:11;15.00;99.90
22680;DHT22;11507;44.858;10.374;2023-02-25T09:36:39;15.20;99.90
22680;DHT22;11507;44.858;10.374;2023-02-25T09:39:05;15.30;99.90
22680;DHT22;11507;44.858;10.374;2023-02-25T09:41:49;15.40;99.90
22680;DHT22;11507;44.858;10.374;2023-02-25T09:44:23;15.60;99.90
22680;DHT22;11507;44.858;10.374;2023-02-25T09:46:52;16.10;99.90
22680;DHT22;11507;44.858;10.374;2023-02-25T09:49:28;16.10;99.90
22680;DHT22;11507;44.858;10.374;2023-02-25T09:52:00;16.50;99.90
22680;DHT22;11507;44.858;10.374;2023-02-25T09:54:36;17.10;99.90
22680;DHT22;11507;44.858;10.374;2023-02-25T09:57:02;17.60;99.90
22680;DHT22;11507;44.858;10.374;2023-02-25T09:59:29;17.50;99.90
22680;DHT22;11507;44.858;10.374;2023-02-25T10:02:15;17.20;99.90
22680;DHT22;11507;44.858;10.374;2023-02-25T10:04:50;17.10;99.90
22680;DHT22;11507;44.858;10.374;2023-02-25T10:07:23;17.30;99.90
22680;DHT22;11507;44.858;10.374;2023-02-25T10:10:12;17.70;99.90
22680;DHT22;11507;44.858;10.374;2023-02-25T10:25:09;19.00;99.90
22680;DHT22;11507;44.858;10.374;2023-02-25T10:27:37;19.20;99.90
22680;DHT22;11507;44.858;10.374;2023-02-25T10:30:06;19.40;99.90
22680;DHT22;11507;44.858;10.374;2023-02-25T10:32:33;19.70;99.90
22680;DHT22;11507;44.858;10.374;2023-02-25T10:35:04;19.80;99.90
22680;DHT22;11507;44.858;10.374;2023-02-25T10:37:36;19.30;99.90
22680;DHT22;11507;44.858;10.374;2023-02-25T10:40:05;19.30;99.90
22680;DHT22;11507;44.858;10.374;2023-02-25T10:42:35;19.10;99.90
22680;DHT22;11507;44.858;10.374;2023-02-25T10:45:06;18.90;99.90
22680;DHT22;11507;44.858;10.374;2023-02-25T10:47:36;19.00;99.90
22680;DHT22;11507;44.858;10.374;2023-02-25T10:50:45;19.30;99.90
22680;DHT22;11507;44.858;10.374;2023-02-25T10:57:59;19.00;99.90
22680;DHT22;11507;44.858;10.374;2023-02-25T11:02:51;18.30;99.90
22680;DHT22;11507;44.858;10.374;2023-02-25T11:05:31;18.20;99.90
22680;DHT22;11507;44.858;10.374;2023-02-25T11:07:57;18.10;99.90
22680;DHT22;11507;44.858;10.374;2023-02-25T11:10:23;17.80;99.90
22680;DHT22;11507;44.858;10.374;2023-02-25T11:17:54;17.40;99.90
22680;DHT22;11507;44.858;10.374;2023-02-25T11:20:23;17.30;99.90
22680;DHT22;11507;44.858;10.374;2023-02-25T11:22:53;17.30;99.90
22680;DHT22;11507;44.858;10.374;2023-02-25T11:25:20;17.60;99.90
22680;DHT22;11507;44.858;10.374;2023-02-25T11:27:54;17.70;99.90
22680;DHT22;11507;44.858;10.374;2023-02-25T11:30:31;17.60;99.90
22680;DHT22;11507;44.858;10.374;2023-02-25T11:32:58;17.50;99.90
22680;DHT22;11507;44.858;10.374;2023-02-25T11:35:42;17.20;99.90
22680;DHT22;11507;44.858;10.374;2023-02-25T11:38:13;16.90;99.90
22680;DHT22;11507;44.858;10.374;2023-02-25T11:40:42;16.80;99.90
22680;DHT22;11507;44.858;10.374;2023-02-25T11:43:16;16.70;99.90
22680;DHT22;11507;44.858;10.374;2023-02-25T11:45:59;16.70;99.90
22680;DHT22;11507;44.858;10.374;2023-02-25T11:48:29;16.80;99.90
22680;DHT22;11507;44.858;10.374;2023-02-25T11:53:44;16.90;99.90
22680;DHT22;11507;44.858;10.374;2023-02-25T11:58:45;17.00;99.90
22680;DHT22;11507;44.858;10.374;2023-02-25T12:01:20;17.00;99.90
22680;DHT22;11507;44.858;10.374;2023-02-25T12:03:52;17.10;99.90
22680;DHT22;11507;44.858;10.374;2023-02-25T12:06:43;17.10;99.90
22680;DHT22;11507;44.858;10.374;2023-02-25T12:12:00;17.00;99.90
22680;DHT22;11507;44.858;10.374;2023-02-25T12:27:49;16.80;99.90
22680;DHT22;11507;44.858;10.374;2023-02-25T12:35:22;17.40;99.90
22680;DHT22;11507;44.858;10.374;2023-02-25T12:40:31;17.30;99.90
22680;DHT22;11507;44.858;10.374;2023-02-25T12:54:24;17.50;99.90
22680;DHT22;11507;44.858;10.374;2023-02-25T12:59:33;17.50;99.90
22680;DHT22;11507;44.858;10.374;2023-02-25T13:25:12;17.80;99.90
22680;DHT22;11507;44.858;10.374;2023-02-25T13:27:44;17.80;99.90
22680;DHT22;11507;44.858;10.374;2023-02-25T13:33:04;17.80;99.90
22680;DHT22;11507;44.858;10.374;2023-02-25T13:38:25;18.50;99.90
22680;DHT22;11507;44.858;10.374;2023-02-25T13:46:04;20.30;99.90
22680;DHT22;11507;44.858;10.374;2023-02-25T13:48:55;20.90;99.90
22680;DHT22;11507;44.858;10.374;2023-02-25T13:54:19;20.50;99.90
22680;DHT22;11507;44.858;10.374;2023-02-25T13:57:34;20.00;99.90
22680;DHT22;11507;44.858;10.374;2023-02-25T14:31:48;17.80;99.90
22680;DHT22;11507;44.858;10.374;2023-02-25T15:00:30;17.50;99.90
22680;DHT22;11507;44.858;10.374;2023-02-25T15:03:04;17.60;99.90
22680;DHT22;11507;44.858;10.374;2023-02-25T15:10:47;17.60;99.90
22680;DHT22;11507;44.858;10.374;2023-02-25T15:18:25;17.50;99.90
22680;DHT22;11507;44.858;10.374;2023-02-25T15:20:52;17.40;99.90
22680;DHT22;11507;44.858;10.374;2023-02-25T15:23:18;17.30;99.90
22680;DHT22;11507;44.858;10.374;2023-02-25T15:25:51;17.30;99.90
22680;DHT22;11507;44.858;10.374;2023-02-25T15:28:38;17.20;99.90
22680;DHT22;11507;44.858;10.374;2023-02-25T15:31:06;17.10;99.90
22680;DHT22;11507;44.858;10.374;2023-02-25T15:36:00;16.90;99.90
22680;DHT22;11507;44.858;10.374;2023-02-25T15:38:42;16.90;99.90
22680;DHT22;11507;44.858;10.374;2023-02-25T15:49:34;16.60;99.90
22680;DHT22;11507;44.858;10.374;2023-02-25T15:51:48;16.50;99.90
22680;DHT22;11507;44.858;10.374;2023-02-25T15:56:51;16.30;99.90
22680;DHT22;11507;44.858;10.374;2023-02-25T16:02:02;16.10;99.90
22680;DHT22;11507;44.858;10.374;2023-02-25T16:04:48;16.00;99.90
22680;DHT22;11507;44.858;10.374;2023-02-25T16:07:15;15.90;99.90
22680;DHT22;11507;44.858;10.374;2023-02-25T16:09:43;15.80;99.90
22680;DHT22;11507;44.858;10.374;2023-02-25T16:12:10;15.70;99.90
22680;DHT22;11507;44.858;10.374;2023-02-25T16:14:38;15.70;99.90
22680;DHT22;11507;44.858;10.374;2023-02-25T16:17:12;15.60;99.90
22680;DHT22;11507;44.858;10.374;2023-02-25T16:19:39;15.50;99.90
22680;DHT22;11507;44.858;10.374;2023-02-25T16:22:06;15.50;99.90
22680;DHT22;11507;44.858;10.374;2023-02-25T16:24:36;15.30;99.90
22680;DHT22;11507;44.858;10.374;2023-02-25T16:29:39;15.20;99.90
22680;DHT22;11507;44.858;10.374;2023-02-25T16:34:41;15.00;99.90
22680;DHT22;11507;44.858;10.374;2023-02-25T16:39:53;14.80;99.90
22680;DHT22;11507;44.858;10.374;2023-02-25T16:42:19;14.70;99.90
22680;DHT22;11507;44.858;10.374;2023-02-25T16:44:51;14.70;99.90
22680;DHT22;11507;44.858;10.374;2023-02-25T16:47:23;14.60;99.90
22680;DHT22;11507;44.858;10.374;2023-02-25T16:49:51;14.50;99.90
22680;DHT22;11507;44.858;10.374;2023-02-25T16:52:19;14.40;99.90
22680;DHT22;11507;44.858;10.374;2023-02-25T16:54:46;14.40;99.90
22680;DHT22;11507;44.858;10.374;2023-02-25T16:57:18;14.30;99.90
22680;DHT22;11507;44.858;10.374;2023-02-25T16:59:44;14.30;99.90
22680;DHT22;11507;44.858;10.374;2023-02-25T17:04:43;14.20;99.90
22680;DHT22;11507;44.858;10.374;2023-02-25T17:09:50;14.10;99.90
22680;DHT22;11507;44.858;10.374;2023-02-25T17:12:19;14.10;99.90
22680;DHT22;11507;44.858;10.374;2023-02-25T17:14:45;14.10;99.90
22680;DHT22;11507;44.858;10.374;2023-02-25T17:17:23;14.00;99.90
22680;DHT22;11507;44.858;10.374;2023-02-25T17:19:50;14.00;99.90
22680;DHT22;11507;44.858;10.374;2023-02-25T17:22:20;13.90;99.90
22680;DHT22;11507;44.858;10.374;2023-02-25T17:24:48;13.90;99.90
22680;DHT22;11507;44.858;10.374;2023-02-25T17:27:15;13.80;99.90
22680;DHT22;11507;44.858;10.374;2023-02-25T17:29:41;13.80;99.90
22680;DHT22;11507;44.858;10.374;2023-02-25T17:32:11;13.80;99.90
22680;DHT22;11507;44.858;10.374;2023-02-25T17:34:38;13.70;99.90
22680;DHT22;11507;44.858;10.374;2023-02-25T17:37:05;13.70;99.90
22680;DHT22;11507;44.858;10.374;2023-02-25T17:39:33;13.60;99.90
22680;DHT22;11507;44.858;10.374;2023-02-25T17:42:00;13.60;99.90
22680;DHT22;11507;44.858;10.374;2023-02-25T17:47:01;13.50;99.90
22680;DHT22;11507;44.858;10.374;2023-02-25T17:49:33;13.50;99.90
22680;DHT22;11507;44.858;10.374;2023-02-25T17:52:07;13.40;99.90
22680;DHT22;11507;44.858;10.374;2023-02-25T17:54:39;13.40;99.90
22680;DHT22;11507;44.858;10.374;2023-02-25T17:57:20;13.30;99.90
22680;DHT22;11507;44.858;10.374;2023-02-25T17:59:52;13.30;99.90
22680;DHT22;11507;44.858;10.374;2023-02-25T18:04:46;13.30;99.90
22680;DHT22;11507;44.858;10.374;2023-02-25T18:07:30;13.20;99.90
22680;DHT22;11507;44.858;10.374;2023-02-25T18:09:57;13.20;99.90
22680;DHT22;11507;44.858;10.374;2023-02-25T18:12:28;13.10;99.90
22680;DHT22;11507;44.858;10.374;2023-02-25T18:14:55;13.10;99.90
22680;DHT22;11507;44.858;10.374;2023-02-25T18:19:47;13.00;99.90
22680;DHT22;11507;44.858;10.374;2023-02-25T18:24:56;13.00;99.90
22680;DHT22;11507;44.858;10.374;2023-02-25T18:27:24;12.90;99.90
22680;DHT22;11507;44.858;10.374;2023-02-25T18:29:52;12.90;99.90
22680;DHT22;11507;44.858;10.374;2023-02-25T18:32:19;12.80;99.90
22680;DHT22;11507;44.858;10.374;2023-02-25T18:34:45;12.80;99.90
22680;DHT22;11507;44.858;10.374;2023-02-25T18:37:15;12.80;99.90
22680;DHT22;11507;44.858;10.374;2023-02-25T18:39:42;12.80;99.90
22680;DHT22;11507;44.858;10.374;2023-02-25T18:42:17;12.80;99.90
22680;DHT22;11507;44.858;10.374;2023-02-25T18:44:44;12.80;99.90
22680;DHT22;11507;44.858;10.374;2023-02-25T18:47:10;12.80;99.90
22680;DHT22;11507;44.858;10.374;2023-02-25T18:49:36;12.80;99.90
22680;DHT22;11507;44.858;10.374;2023-02-25T18:52:02;12.80;99.90
22680;DHT22;11507;44.858;10.374;2023-02-25T18:54:28;12.80;99.90
22680;DHT22;11507;44.858;10.374;2023-02-25T18:56:53;12.80;99.90
22680;DHT22;11507;44.858;10.374;2023-02-25T18:59:19;12.70;99.90
22680;DHT22;11507;44.858;10.374;2023-02-25T19:01:45;12.60;99.90
22680;DHT22;11507;44.858;10.374;2023-02-25T19:04:15;12.50;99.90
22680;DHT22;11507;44.858;10.374;2023-02-25T19:06:40;12.50;99.90
22680;DHT22;11507;44.858;10.374;2023-02-25T19:09:06;12.40;99.90
22680;DHT22;11507;44.858;10.374;2023-02-25T19:11:33;12.30;99.90
22680;DHT22;11507;44.858;10.374;2023-02-25T19:14:00;12.20;99.90
22680;DHT22;11507;44.858;10.374;2023-02-25T19:16:27;12.10;99.90
22680;DHT22;11507;44.858;10.374;2023-02-25T19:18:53;12.00;99.90
22680;DHT22;11507;44.858;10.374;2023-02-25T19:21:19;12.00;99.90
22680;DHT22;11507;44.858;10.374;2023-02-25T19:23:45;12.00;99.90
22680;DHT22;11507;44.858;10.374;2023-02-25T19:26:11;12.00;99.90
22680;DHT22;11507;44.858;10.374;2023-02-25T19:28:38;11.90;99.90
22680;DHT22;11507;44.858;10.374;2023-02-25T19:31:04;11.90;99.90